Time;durP1;ratioP1;P1;durP2;ratioP2;P2;SDS_P1;SDS_P2;PMS_P1;PMS_P2;Temp;Humidity;BMP_temperature;BMP_pressure;BME280_temperature;BME280_humidity;BME280_pressure;Samples;Min_cycle;Max_cycle;Signal;HPM_P1;HPM_P2
2020/12/23 00:00:10;;;;;;;3.10;2.40;;;15.70;99.90;;;;;;5050166;28;20996;-49
2020/12/23 00:02:37;;;;;;;2.47;1.90;;;15.60;99.90;;;;;;5049895;28;20672;-49
2020/12/23 00:05:05;;;;;;;2.93;1.93;;;15.50;99.90;;;;;;5050434;28;20694;-49
2020/12/23 00:07:32;;;;;;;2.90;2.40;;;15.40;99.90;;;;;;5065475;28;21179;-49
2020/12/23 00:09:58;;;;;;;2.63;2.00;;;15.30;99.90;;;;;;5091510;28;21245;-49
2020/12/23 00:12:26;;;;;;;2.23;1.97;;;15.20;99.90;;;;;;5072972;28;20664;-48
2020/12/23 00:14:53;;;;;;;1.90;1.80;;;15.20;99.90;;;;;;5070926;28;20649;-49
2020/12/23 00:17:20;;;;;;;2.20;2.10;;;15.30;99.90;;;;;;5053056;28;20658;-48
2020/12/23 00:19:46;;;;;;;2.53;2.33;;;15.20;99.90;;;;;;5050875;28;20686;-49
2020/12/23 00:22:14;;;;;;;3.10;2.20;;;15.20;99.90;;;;;;5050620;28;20642;-49
2020/12/23 00:24:41;;;;;;;4.47;2.00;;;15.10;99.90;;;;;;5050076;28;21001;-49
2020/12/23 00:27:07;;;;;;;4.80;2.23;;;15.10;99.90;;;;;;5065643;28;20617;-49
2020/12/23 00:29:35;;;;;;;3.20;1.87;;;15.10;99.90;;;;;;5070272;28;20679;-48
2020/12/23 00:32:02;;;;;;;2.57;2.37;;;15.10;99.90;;;;;;5069363;28;20668;-48
2020/12/23 00:34:29;;;;;;;3.00;2.37;;;15.10;99.90;;;;;;5069995;28;20660;-48
2020/12/23 00:36:56;;;;;;;3.13;2.83;;;15.00;99.90;;;;;;5072747;28;20660;-49
2020/12/23 00:39:23;;;;;;;5.93;3.13;;;15.10;99.90;;;;;;5090335;28;20660;-48
2020/12/23 00:41:49;;;;;;;2.47;2.27;;;15.10;99.90;;;;;;5090963;28;20620;-48
2020/12/23 00:44:16;;;;;;;3.07;2.73;;;15.10;99.90;;;;;;5090467;28;20990;-48
2020/12/23 00:46:44;;;;;;;4.73;2.40;;;15.00;99.90;;;;;;5090390;28;20699;-48
2020/12/23 00:49:10;;;;;;;3.70;2.93;;;15.00;99.90;;;;;;5090710;28;20676;-49
2020/12/23 00:51:37;;;;;;;4.07;2.87;;;15.00;99.90;;;;;;5090878;28;20656;-50
2020/12/23 00:54:04;;;;;;;4.30;2.50;;;15.00;99.90;;;;;;5090576;28;21032;-50
2020/12/23 00:56:31;;;;;;;2.87;2.27;;;15.00;99.90;;;;;;5090933;28;20652;-50
2020/12/23 00:58:57;;;;;;;3.53;2.53;;;15.00;99.90;;;;;;5090172;28;20664;-49
2020/12/23 01:01:24;;;;;;;3.80;1.77;;;15.00;99.90;;;;;;5090430;28;20623;-49
2020/12/23 01:03:51;;;;;;;2.40;2.17;;;15.10;99.90;;;;;;5090124;28;21035;-49
2020/12/23 01:06:18;;;;;;;3.53;2.00;;;15.00;99.90;;;;;;5090356;28;21500;-50
2020/12/23 01:08:45;;;;;;;4.87;2.10;;;15.00;99.90;;;;;;5090089;28;20684;-50
2020/12/23 01:11:12;;;;;;;3.30;2.30;;;15.00;99.90;;;;;;5090166;28;20640;-49
2020/12/23 01:13:39;;;;;;;2.53;2.33;;;14.90;99.90;;;;;;5090220;28;20694;-49
2020/12/23 01:16:06;;;;;;;2.17;1.77;;;14.90;99.90;;;;;;5090625;28;20644;-49
2020/12/23 01:18:32;;;;;;;2.67;2.47;;;14.80;99.90;;;;;;5090058;28;20687;-49
2020/12/23 01:21:00;;;;;;;3.57;2.60;;;14.80;99.90;;;;;;5089852;28;21238;-50
2020/12/23 01:23:27;;;;;;;3.93;1.67;;;14.80;99.90;;;;;;5090137;28;20656;-50
2020/12/23 01:25:53;;;;;;;3.80;2.67;;;14.70;99.90;;;;;;5090163;28;20684;-49
2020/12/23 01:28:20;;;;;;;3.10;2.37;;;14.70;99.90;;;;;;5089800;28;20659;-48
2020/12/23 01:30:47;;;;;;;4.17;2.27;;;14.70;99.90;;;;;;5089516;28;20651;-49
2020/12/23 01:33:14;;;;;;;4.70;2.73;;;14.60;99.90;;;;;;5090109;28;20624;-48
2020/12/23 01:35:41;;;;;;;2.30;2.10;;;14.60;99.90;;;;;;5089681;28;20640;-48
2020/12/23 01:38:08;;;;;;;2.53;2.33;;;14.60;99.90;;;;;;5088329;28;20963;-48
2020/12/23 01:40:35;;;;;;;2.50;2.30;;;14.60;99.90;;;;;;5089707;28;20616;-48
2020/12/23 01:43:02;;;;;;;2.50;2.30;;;14.60;99.90;;;;;;5089554;28;20678;-49
2020/12/23 01:45:28;;;;;;;2.47;2.27;;;14.60;99.90;;;;;;5089522;28;20702;-49
2020/12/23 01:47:56;;;;;;;4.40;2.20;;;14.60;99.90;;;;;;5089878;28;20691;-49
2020/12/23 01:50:23;;;;;;;2.10;1.90;;;14.60;99.90;;;;;;5089696;28;20751;-48
2020/12/23 01:52:51;;;;;;;2.60;2.30;;;14.60;99.90;;;;;;5089647;28;21180;-48
2020/12/23 01:55:18;;;;;;;1.90;1.80;;;14.60;99.90;;;;;;5089336;28;20702;-48
2020/12/23 01:57:45;;;;;;;2.37;2.23;;;14.60;99.90;;;;;;5089381;28;20709;-49
2020/12/23 02:00:12;;;;;;;2.33;2.13;;;14.70;99.90;;;;;;5089739;28;20738;-49
2020/12/23 02:02:38;;;;;;;2.30;2.10;;;14.70;99.90;;;;;;5089544;28;20655;-51
2020/12/23 02:05:07;;;;;;;4.23;2.20;;;14.70;99.90;;;;;;5089214;28;21275;-50
2020/12/23 02:07:33;;;;;;;2.37;2.17;;;14.80;99.90;;;;;;5089089;28;20628;-51
2020/12/23 02:10:02;;;;;;;2.20;2.00;;;14.70;99.90;;;;;;5089349;28;21276;-50
2020/12/23 02:12:29;;;;;;;2.40;1.87;;;14.70;99.90;;;;;;5089974;28;20659;-50
2020/12/23 02:14:58;;;;;;;2.07;1.97;;;14.80;99.90;;;;;;5089408;28;20697;-49
2020/12/23 02:17:27;;;;;;;2.43;2.23;;;14.80;99.90;;;;;;5089393;28;21181;-50
2020/12/23 02:19:54;;;;;;;2.20;2.10;;;14.80;99.90;;;;;;5089671;28;20696;-50
2020/12/23 02:22:21;;;;;;;4.43;2.03;;;14.90;99.90;;;;;;5089408;28;20648;-50
2020/12/23 02:24:49;;;;;;;2.40;2.30;;;14.90;99.90;;;;;;5088941;28;20650;-50
2020/12/23 02:27:17;;;;;;;2.77;2.57;;;14.90;99.90;;;;;;5093857;28;20730;-50
2020/12/23 02:29:44;;;;;;;2.40;2.20;;;14.90;99.90;;;;;;5094009;28;20647;-50
2020/12/23 02:32:11;;;;;;;2.80;2.53;;;14.90;99.90;;;;;;5093458;28;20662;-49
2020/12/23 02:34:37;;;;;;;2.30;2.10;;;15.00;99.90;;;;;;5093597;28;20648;-49
2020/12/23 02:37:04;;;;;;;3.30;2.87;;;14.90;99.90;;;;;;5093190;28;20648;-50
2020/12/23 02:39:31;;;;;;;2.60;2.40;;;14.90;99.90;;;;;;5093163;28;20675;-49
2020/12/23 02:41:59;;;;;;;2.30;2.10;;;14.90;99.90;;;;;;5093209;28;21005;-50
2020/12/23 02:44:26;;;;;;;3.07;1.83;;;15.00;99.90;;;;;;5093044;28;20652;-50
2020/12/23 02:46:56;;;;;;;3.00;2.80;;;14.90;99.90;;;;;;5092995;28;20692;-50
2020/12/23 02:49:22;;;;;;;2.50;2.30;;;14.90;99.90;;;;;;5092780;28;20695;-50
2020/12/23 02:51:49;;;;;;;1.80;1.70;;;15.00;99.90;;;;;;5093112;28;20661;-48
2020/12/23 02:54:16;;;;;;;2.10;2.00;;;14.90;99.90;;;;;;5092920;28;20693;-48
2020/12/23 02:56:43;;;;;;;3.47;2.20;;;14.90;99.90;;;;;;5092696;28;20651;-48
2020/12/23 02:59:10;;;;;;;3.03;1.83;;;14.90;99.90;;;;;;5092692;28;21254;-48
2020/12/23 03:01:37;;;;;;;1.90;1.77;;;14.90;99.90;;;;;;5092717;28;21143;-48
2020/12/23 03:04:04;;;;;;;2.20;1.83;;;14.80;99.90;;;;;;5092599;28;20667;-48
2020/12/23 03:06:31;;;;;;;2.80;1.80;;;14.80;99.90;;;;;;5092825;28;20695;-48
2020/12/23 03:08:57;;;;;;;1.83;1.73;;;14.80;99.90;;;;;;5092819;28;20710;-48
2020/12/23 03:11:24;;;;;;;2.20;1.63;;;14.80;99.90;;;;;;5091384;28;21043;-48
2020/12/23 03:13:51;;;;;;;2.03;1.60;;;14.80;99.90;;;;;;5092644;28;20660;-48
2020/12/23 03:16:18;;;;;;;3.13;1.60;;;14.80;99.90;;;;;;5092191;28;20667;-48
2020/12/23 03:18:45;;;;;;;1.47;1.37;;;14.80;99.90;;;;;;5092110;28;20728;-48
2020/12/23 03:21:12;;;;;;;1.63;1.53;;;14.80;99.90;;;;;;5092641;28;20634;-48
2020/12/23 03:23:38;;;;;;;2.03;1.50;;;14.80;99.90;;;;;;5092450;28;20759;-48
2020/12/23 03:26:05;;;;;;;1.50;1.40;;;14.80;99.90;;;;;;5092391;28;20691;-47
2020/12/23 03:28:32;;;;;;;4.97;2.17;;;14.80;99.90;;;;;;5092164;28;20655;-48
2020/12/23 03:30:59;;;;;;;2.40;1.53;;;14.80;99.90;;;;;;5092243;28;20647;-48
2020/12/23 03:33:27;;;;;;;3.13;1.77;;;14.80;99.90;;;;;;5092270;28;21019;-48
2020/12/23 03:35:53;;;;;;;1.60;1.50;;;14.70;99.90;;;;;;5092026;28;20671;-48
2020/12/23 03:38:20;;;;;;;1.73;1.57;;;14.70;99.90;;;;;;5091136;28;21052;-49
2020/12/23 03:40:47;;;;;;;2.80;2.50;;;14.70;99.90;;;;;;5092409;28;20670;-49
2020/12/23 03:43:14;;;;;;;1.80;1.70;;;14.70;99.90;;;;;;5092360;28;20648;-48
2020/12/23 03:45:40;;;;;;;1.70;1.60;;;14.70;99.90;;;;;;5092045;28;20691;-48
2020/12/23 03:48:07;;;;;;;2.33;1.70;;;14.70;99.90;;;;;;5073382;28;20644;-48
2020/12/23 03:50:35;;;;;;;2.40;1.73;;;14.60;99.90;;;;;;5091988;28;20724;-48
2020/12/23 03:53:01;;;;;;;2.83;2.03;;;14.60;99.90;;;;;;5091208;28;20932;-47
2020/12/23 03:55:28;;;;;;;3.30;1.70;;;14.60;99.90;;;;;;5091703;28;20648;-49
2020/12/23 03:57:55;;;;;;;2.20;2.00;;;14.60;99.90;;;;;;5091425;28;20984;-48
2020/12/23 04:00:21;;;;;;;2.60;1.73;;;14.60;99.90;;;;;;5091842;28;20671;-48
2020/12/23 04:02:48;;;;;;;2.80;1.57;;;14.60;99.90;;;;;;5073366;28;20629;-48
2020/12/23 04:05:15;;;;;;;2.40;1.37;;;14.60;99.90;;;;;;5092012;28;20732;-49
2020/12/23 04:07:42;;;;;;;1.77;1.57;;;14.60;99.90;;;;;;5091692;28;20700;-48
2020/12/23 04:10:09;;;;;;;7.90;1.90;;;14.60;99.90;;;;;;5092361;28;20652;-48
2020/12/23 04:12:36;;;;;;;1.97;1.87;;;14.60;99.90;;;;;;5092098;28;20649;-47
2020/12/23 04:15:04;;;;;;;1.50;1.40;;;14.60;99.90;;;;;;5091838;28;20655;-48
2020/12/23 04:17:31;;;;;;;1.37;0.80;;;14.60;99.90;;;;;;5091669;28;20671;-48
2020/12/23 04:19:58;;;;;;;1.73;1.30;;;14.60;99.90;;;;;;5091709;28;20939;-49
2020/12/23 04:22:28;;;;;;;2.60;1.30;;;14.60;99.90;;;;;;5092202;28;20620;-48
2020/12/23 04:24:57;;;;;;;1.17;1.00;;;14.60;99.90;;;;;;5091719;28;20659;-48
2020/12/23 04:27:24;;;;;;;1.47;1.00;;;14.50;99.90;;;;;;5091580;28;20844;-48
2020/12/23 04:29:50;;;;;;;0.97;0.87;;;14.60;99.90;;;;;;5091711;28;20706;-48
2020/12/23 04:32:17;;;;;;;1.60;0.90;;;14.60;99.90;;;;;;5091644;28;20655;-48
2020/12/23 04:34:44;;;;;;;0.73;0.70;;;14.50;99.90;;;;;;5091324;28;20759;-48
2020/12/23 04:37:11;;;;;;;2.13;1.20;;;14.50;99.90;;;;;;5091185;28;21027;-48
2020/12/23 04:39:37;;;;;;;0.90;0.90;;;14.60;99.90;;;;;;5090983;28;20695;-48
2020/12/23 04:42:05;;;;;;;0.90;0.80;;;14.50;99.90;;;;;;5091539;28;20652;-47
2020/12/23 04:44:32;;;;;;;1.27;1.10;;;14.50;99.90;;;;;;5091012;28;20705;-47
2020/12/23 04:46:58;;;;;;;1.23;1.13;;;14.50;99.90;;;;;;5091247;28;20691;-48
2020/12/23 04:49:25;;;;;;;2.83;1.17;;;14.50;99.90;;;;;;5090857;28;20737;-48
2020/12/23 04:51:53;;;;;;;0.83;0.80;;;14.60;99.90;;;;;;5091208;28;20679;-49
2020/12/23 04:54:20;;;;;;;2.20;0.80;;;14.50;99.90;;;;;;5090793;28;20667;-50
2020/12/23 04:56:46;;;;;;;0.90;0.80;;;14.50;99.90;;;;;;5091186;28;20697;-48
2020/12/23 04:59:14;;;;;;;1.13;0.67;;;14.50;99.90;;;;;;5090492;28;20655;-50
2020/12/23 05:01:41;;;;;;;1.70;0.77;;;14.50;99.90;;;;;;5091083;28;20718;-49
2020/12/23 05:04:07;;;;;;;0.90;0.80;;;14.50;99.90;;;;;;5090960;28;20652;-49
2020/12/23 05:06:35;;;;;;;0.83;0.80;;;14.50;99.90;;;;;;5090686;28;21074;-49
2020/12/23 05:09:03;;;;;;;0.90;0.80;;;14.40;99.90;;;;;;5091058;28;20688;-49
2020/12/23 05:11:32;;;;;;;2.30;0.90;;;14.40;99.90;;;;;;5090811;28;20663;-49
2020/12/23 05:14:01;;;;;;;1.27;1.00;;;14.40;99.90;;;;;;5090622;28;20663;-49
2020/12/23 05:16:29;;;;;;;1.00;0.87;;;14.40;99.90;;;;;;5091519;28;21005;-50
2020/12/23 05:18:57;;;;;;;1.30;0.50;;;14.40;99.90;;;;;;5072190;28;21207;-50
2020/12/23 05:21:24;;;;;;;1.33;0.67;;;14.40;99.90;;;;;;5090777;28;20716;-49
2020/12/23 05:23:51;;;;;;;1.13;0.90;;;14.40;99.90;;;;;;5090215;28;21019;-50
2020/12/23 05:26:18;;;;;;;1.40;0.87;;;14.40;99.90;;;;;;5090728;28;21211;-50
2020/12/23 05:28:45;;;;;;;1.60;0.97;;;14.40;99.90;;;;;;5090900;28;20648;-50
2020/12/23 05:31:13;;;;;;;2.30;0.80;;;14.40;99.90;;;;;;5090384;28;20628;-50
2020/12/23 05:33:42;;;;;;;0.93;0.50;;;14.40;99.90;;;;;;5091112;28;20624;-50
2020/12/23 05:36:09;;;;;;;1.20;0.90;;;14.40;99.90;;;;;;5090200;28;20647;-50
2020/12/23 05:38:36;;;;;;;0.67;0.67;;;14.40;99.90;;;;;;5089703;28;20679;-48
2020/12/23 05:41:04;;;;;;;0.93;0.87;;;14.50;99.90;;;;;;5090485;28;21060;-48
2020/12/23 05:43:31;;;;;;;0.93;0.83;;;14.50;99.90;;;;;;5090157;28;20656;-47
2020/12/23 05:45:59;;;;;;;1.80;0.70;;;14.50;99.90;;;;;;5089770;28;20631;-48
2020/12/23 05:48:26;;;;;;;0.60;0.60;;;14.50;99.90;;;;;;5090061;28;20687;-48
2020/12/23 05:50:54;;;;;;;0.57;0.53;;;14.50;99.90;;;;;;5088226;28;20759;-50
2020/12/23 05:53:20;;;;;;;0.60;0.60;;;14.50;99.90;;;;;;5089984;28;20620;-50
2020/12/23 05:55:48;;;;;;;0.60;0.60;;;14.50;99.90;;;;;;5089896;28;20656;-50
2020/12/23 05:58:21;;;;;;;0.80;0.70;;;14.50;99.90;;;;;;5090080;28;20678;-50
2020/12/23 06:00:49;;;;;;;0.80;0.63;;;14.60;99.90;;;;;;5089004;28;20620;-49
2020/12/23 06:03:20;;;;;;;1.07;0.83;;;14.50;99.90;;;;;;5089760;28;21001;-49
2020/12/23 06:05:54;;;;;;;0.90;0.90;;;14.50;99.90;;;;;;5089551;28;20616;-49
2020/12/23 06:08:21;;;;;;;0.80;0.80;;;14.50;99.90;;;;;;5089851;28;20663;-49
2020/12/23 06:10:48;;;;;;;1.40;1.30;;;14.60;99.90;;;;;;5071510;28;20660;-49
2020/12/23 06:13:15;;;;;;;1.80;1.70;;;14.60;99.90;;;;;;5090157;28;20677;-50
2020/12/23 06:15:42;;;;;;;1.63;1.50;;;14.60;99.90;;;;;;5089798;28;21291;-50
2020/12/23 06:18:16;;;;;;;1.87;1.63;;;14.60;99.90;;;;;;5090370;28;20691;-48
2020/12/23 06:20:45;;;;;;;3.27;2.30;;;14.60;99.90;;;;;;5071356;28;20730;-48
2020/12/23 06:23:12;;;;;;;2.40;1.73;;;14.60;99.90;;;;;;5089789;28;21184;-48
2020/12/23 06:25:39;;;;;;;1.93;1.70;;;14.60;99.90;;;;;;5090256;28;20623;-49
2020/12/23 06:28:06;;;;;;;2.77;2.20;;;14.60;99.90;;;;;;5089455;28;20691;-49
2020/12/23 06:30:33;;;;;;;2.60;2.40;;;14.70;99.90;;;;;;5089620;28;20983;-50
2020/12/23 06:33:00;;;;;;;2.50;2.30;;;14.70;99.90;;;;;;5089591;28;20685;-49
2020/12/23 06:35:27;;;;;;;2.80;2.33;;;14.70;99.90;;;;;;5090056;28;21239;-48
2020/12/23 06:37:54;;;;;;;3.23;2.87;;;14.70;99.90;;;;;;5071820;28;20674;-50
2020/12/23 06:40:20;;;;;;;3.63;3.33;;;14.60;99.90;;;;;;5090081;28;20708;-49
2020/12/23 06:42:48;;;;;;;3.37;3.00;;;14.70;99.90;;;;;;5089731;28;20675;-49
2020/12/23 06:45:15;;;;;;;4.70;3.50;;;14.70;99.90;;;;;;5089574;28;20656;-49
2020/12/23 06:47:42;;;;;;;4.20;3.80;;;14.70;99.90;;;;;;5089519;28;20684;-49
2020/12/23 06:50:31;;;;;;;4.20;3.90;;;14.70;99.90;;;;;;5090196;28;21176;-48
2020/12/23 06:52:58;;;;;;;4.83;4.43;;;14.70;99.90;;;;;;5089916;28;20660;-49
2020/12/23 06:55:44;;;;;;;5.30;4.90;;;14.60;99.90;;;;;;5089465;28;20626;-48
2020/12/23 06:58:40;;;;;;;5.97;5.37;;;14.60;99.90;;;;;;5090291;28;20664;-48
2020/12/23 07:01:16;;;;;;;5.67;5.27;;;14.60;99.90;;;;;;5089747;28;20624;-49
2020/12/23 07:03:43;;;;;;;5.50;5.00;;;14.70;99.90;;;;;;5089386;28;20748;-50
2020/12/23 07:06:28;;;;;;;5.70;5.20;;;14.70;99.90;;;;;;5089494;28;20627;-50
2020/12/23 07:08:54;;;;;;;7.10;6.50;;;14.70;99.90;;;;;;5089269;28;20648;-50
2020/12/23 07:11:21;;;;;;;6.30;5.80;;;14.60;99.90;;;;;;5090378;28;21055;-50
2020/12/23 07:13:56;;;;;;;8.00;6.60;;;14.60;99.90;;;;;;5093162;28;20631;-50
2020/12/23 07:16:23;;;;;;;6.60;6.10;;;14.60;99.90;;;;;;5093024;28;20655;-48
2020/12/23 07:18:50;;;;;;;6.60;6.10;;;14.60;99.90;;;;;;5093325;28;21323;-48
2020/12/23 07:21:19;;;;;;;9.40;6.50;;;14.70;99.90;;;;;;5093238;28;20620;-48
2020/12/23 07:23:45;;;;;;;7.10;6.50;;;14.60;99.90;;;;;;5092462;28;21035;-48
2020/12/23 07:26:12;;;;;;;7.47;6.87;;;14.70;99.90;;;;;;5093334;28;20635;-48
2020/12/23 07:28:39;;;;;;;8.03;7.33;;;14.80;99.90;;;;;;5092346;28;20680;-48
2020/12/23 07:31:07;;;;;;;7.60;7.00;;;14.70;99.90;;;;;;5068388;28;21189;-48
2020/12/23 07:33:36;;;;;;;6.53;6.03;;;14.70;99.90;;;;;;5072280;28;20613;-48
2020/12/23 07:36:03;;;;;;;6.03;5.60;;;14.70;99.90;;;;;;5072208;28;20617;-48
2020/12/23 07:38:31;;;;;;;7.13;5.83;;;14.70;99.90;;;;;;5061246;28;20696;-48
2020/12/23 07:40:58;;;;;;;6.87;6.20;;;14.70;99.90;;;;;;5052607;28;20662;-49
2020/12/23 07:43:25;;;;;;;5.87;5.37;;;14.70;99.90;;;;;;5052073;28;20665;-48
2020/12/23 07:45:52;;;;;;;6.20;5.70;;;14.70;99.90;;;;;;5056086;28;20656;-49
2020/12/23 07:48:20;;;;;;;6.63;6.03;;;14.70;99.90;;;;;;5051666;28;20704;-49
2020/12/23 07:50:48;;;;;;;4.50;4.10;;;14.70;99.90;;;;;;5073746;28;20664;-49
2020/12/23 07:53:15;;;;;;;5.53;5.13;;;14.70;99.90;;;;;;5051483;28;20622;-49
2020/12/23 07:55:43;;;;;;;7.07;5.07;;;14.70;99.90;;;;;;5051777;28;20661;-49
2020/12/23 07:58:09;;;;;;;5.50;5.00;;;14.70;99.90;;;;;;5051533;28;20649;-49
2020/12/23 08:00:37;;;;;;;8.10;5.70;;;14.70;99.90;;;;;;5052136;28;20668;-49
2020/12/23 08:03:04;;;;;;;5.67;5.17;;;14.70;99.90;;;;;;5053391;28;20660;-49
2020/12/23 08:05:32;;;;;;;5.43;4.93;;;14.70;99.90;;;;;;5071381;28;20624;-49
2020/12/23 08:07:59;;;;;;;5.10;4.80;;;14.80;99.90;;;;;;5070961;28;20706;-48
2020/12/23 08:10:25;;;;;;;4.23;3.90;;;14.70;99.90;;;;;;5071149;28;20648;-50
2020/12/23 08:12:54;;;;;;;4.10;3.80;;;14.80;99.90;;;;;;5071535;28;21185;-49
2020/12/23 08:15:21;;;;;;;3.90;3.10;;;14.70;99.90;;;;;;5071446;28;20642;-49
2020/12/23 08:17:48;;;;;;;5.30;4.87;;;14.70;99.90;;;;;;5071005;28;21078;-49
2020/12/23 08:20:15;;;;;;;2.90;2.60;;;14.70;99.90;;;;;;5081948;28;20656;-49
2020/12/23 08:22:43;;;;;;;2.33;2.13;;;14.70;99.90;;;;;;5050632;28;20654;-50
2020/12/23 08:25:11;;;;;;;2.73;2.53;;;14.80;99.90;;;;;;5050764;28;20680;-49
2020/12/23 08:27:39;;;;;;;3.93;2.30;;;14.80;99.90;;;;;;5070833;28;20677;-49
2020/12/23 08:30:07;;;;;;;2.30;2.10;;;14.80;99.90;;;;;;5069868;28;20707;-49
2020/12/23 08:32:37;;;;;;;2.80;2.00;;;14.80;99.90;;;;;;5052335;28;20637;-49
2020/12/23 08:35:04;;;;;;;1.73;1.63;;;14.80;99.90;;;;;;5050728;28;20649;-50
2020/12/23 08:37:33;;;;;;;2.30;2.10;;;14.80;99.90;;;;;;5055307;28;20660;-49
2020/12/23 08:40:00;;;;;;;2.60;2.40;;;14.80;99.90;;;;;;5071291;28;20680;-49
2020/12/23 08:42:27;;;;;;;3.60;3.30;;;14.70;99.90;;;;;;5070173;28;20664;-48
2020/12/23 08:44:55;;;;;;;4.07;3.77;;;14.70;99.90;;;;;;5070476;28;20625;-49
2020/12/23 08:47:26;;;;;;;4.40;3.70;;;14.70;99.90;;;;;;5069799;28;20693;-49
2020/12/23 08:49:54;;;;;;;6.07;4.80;;;14.70;99.90;;;;;;5078027;28;21076;-49
2020/12/23 08:52:21;;;;;;;5.50;5.10;;;14.70;99.90;;;;;;5055942;28;20646;-49
2020/12/23 08:54:48;;;;;;;5.40;4.90;;;14.70;99.90;;;;;;5050285;28;20683;-50
2020/12/23 08:57:17;;;;;;;6.10;5.60;;;14.70;99.90;;;;;;5050398;28;20648;-50
2020/12/23 08:59:45;;;;;;;6.10;5.60;;;14.70;99.90;;;;;;5050412;28;21281;-49
2020/12/23 09:02:13;;;;;;;7.07;6.47;;;14.70;99.90;;;;;;5050404;28;20610;-49
2020/12/23 09:04:39;;;;;;;7.00;6.47;;;14.70;99.90;;;;;;5050124;28;20650;-49
2020/12/23 09:07:06;;;;;;;9.77;7.27;;;14.70;99.90;;;;;;5049477;28;20700;-50
2020/12/23 09:09:33;;;;;;;7.40;6.80;;;14.70;99.90;;;;;;5050241;28;20654;-49
2020/12/23 09:12:01;;;;;;;8.23;7.53;;;14.70;99.90;;;;;;5050386;28;20670;-49
2020/12/23 09:14:30;;;;;;;8.80;7.90;;;14.60;99.90;;;;;;5049809;28;20653;-49
2020/12/23 09:17:01;;;;;;;7.83;7.07;;;14.60;99.90;;;;;;5063466;28;20663;-49
2020/12/23 09:19:54;;;;;;;6.50;5.73;;;14.70;99.90;;;;;;5070579;28;20774;-48
2020/12/23 09:22:28;;;;;;;6.60;6.00;;;14.70;99.90;;;;;;5069026;28;20625;-49
2020/12/23 09:25:19;;;;;;;6.20;5.70;;;14.70;99.90;;;;;;5056965;28;20622;-50
2020/12/23 09:27:47;;;;;;;5.93;5.43;;;14.70;99.90;;;;;;5049391;28;20758;-50
2020/12/23 09:30:15;;;;;;;5.97;5.37;;;14.70;99.90;;;;;;5049969;28;20668;-52
2020/12/23 09:32:51;;;;;;;7.87;5.73;;;14.70;99.90;;;;;;5056543;28;20653;-49
2020/12/23 09:35:19;;;;;;;6.03;5.43;;;14.70;99.90;;;;;;5069383;28;20621;-50
2020/12/23 09:37:47;;;;;;;6.63;4.37;;;14.70;99.90;;;;;;5062779;28;21007;-50
2020/12/23 09:40:14;;;;;;;4.83;4.43;;;14.70;99.90;;;;;;5049921;28;20658;-50
2020/12/23 09:42:41;;;;;;;5.17;4.73;;;14.60;99.90;;;;;;5049508;28;20661;-50
2020/12/23 09:45:08;;;;;;;5.10;4.70;;;14.60;99.90;;;;;;5049645;28;20658;-50
2020/12/23 09:47:41;;;;;;;6.50;5.47;;;14.60;99.90;;;;;;5049122;28;21250;-50
2020/12/23 09:50:07;;;;;;;4.40;3.97;;;14.50;99.90;;;;;;5059454;28;20694;-52
2020/12/23 09:52:34;;;;;;;5.90;5.03;;;14.50;99.90;;;;;;5049484;28;20772;-51
2020/12/23 09:55:01;;;;;;;6.43;5.13;;;14.50;99.90;;;;;;5048644;28;20668;-50
2020/12/23 09:57:28;;;;;;;5.37;4.97;;;14.50;99.90;;;;;;5067679;28;20649;-50
2020/12/23 09:59:54;;;;;;;6.43;4.63;;;14.60;99.90;;;;;;5069119;28;20723;-51
2020/12/23 10:02:21;;;;;;;5.73;4.80;;;14.50;99.90;;;;;;5051719;28;20672;-50
2020/12/23 10:04:49;;;;;;;5.60;5.10;;;14.50;99.90;;;;;;5048916;28;20696;-53
2020/12/23 10:07:18;;;;;;;5.83;5.30;;;14.50;99.90;;;;;;5066086;28;20689;-50
2020/12/23 10:09:44;;;;;;;5.30;4.17;;;14.50;99.90;;;;;;5068975;28;20653;-50
2020/12/23 10:12:11;;;;;;;4.33;3.93;;;14.50;99.90;;;;;;5069010;28;20617;-51
2020/12/23 10:14:38;;;;;;;4.93;4.47;;;14.60;99.90;;;;;;5068765;28;20657;-51
2020/12/23 10:17:04;;;;;;;5.47;4.80;;;14.60;99.90;;;;;;5068838;28;20644;-49
2020/12/23 10:19:31;;;;;;;5.50;5.10;;;14.60;99.90;;;;;;5074031;28;21283;-50
2020/12/23 10:21:59;;;;;;;5.37;4.93;;;14.60;99.90;;;;;;5060350;28;20664;-50
2020/12/23 10:24:25;;;;;;;6.53;5.93;;;14.60;99.90;;;;;;5060062;28;20661;-50
2020/12/23 10:26:52;;;;;;;6.83;4.17;;;14.60;99.90;;;;;;5054768;28;20836;-50
2020/12/23 10:29:19;;;;;;;5.50;5.03;;;14.60;99.90;;;;;;5049185;28;21114;-48
2020/12/23 10:31:46;;;;;;;6.27;4.30;;;14.60;99.90;;;;;;5061236;28;21042;-49
2020/12/23 10:34:14;;;;;;;5.70;4.47;;;14.70;99.90;;;;;;5069142;28;21165;-49
2020/12/23 10:36:41;;;;;;;8.00;4.80;;;14.80;99.90;;;;;;5056942;28;20663;-49
2020/12/23 10:39:08;;;;;;;5.27;4.77;;;14.80;99.90;;;;;;5066488;28;20714;-48
2020/12/23 10:41:35;;;;;;;4.33;3.93;;;14.70;99.90;;;;;;5057496;28;20662;-49
2020/12/23 10:44:02;;;;;;;5.90;3.83;;;14.80;99.90;;;;;;5049285;28;21224;-49
2020/12/23 10:46:28;;;;;;;5.47;4.93;;;14.90;99.90;;;;;;5050234;28;20768;-49
2020/12/23 10:48:55;;;;;;;3.90;3.60;;;14.90;99.90;;;;;;5052611;28;20702;-48
2020/12/23 10:51:22;;;;;;;3.70;3.40;;;15.10;99.90;;;;;;5052802;28;20984;-50
2020/12/23 10:53:49;;;;;;;7.13;3.80;;;15.10;99.90;;;;;;5052065;28;20673;-51
2020/12/23 10:56:16;;;;;;;3.53;3.23;;;15.10;99.90;;;;;;5052666;28;20659;-51
2020/12/23 10:58:43;;;;;;;5.60;3.10;;;15.10;99.90;;;;;;5051644;28;20665;-51
2020/12/23 11:01:09;;;;;;;5.80;4.00;;;15.00;99.90;;;;;;5059335;28;20649;-50
2020/12/23 11:03:36;;;;;;;3.90;3.50;;;15.00;99.90;;;;;;5071552;28;20656;-50
2020/12/23 11:06:03;;;;;;;4.33;3.80;;;15.00;99.90;;;;;;5065014;28;20911;-50
2020/12/23 11:08:30;;;;;;;4.77;3.70;;;15.00;99.90;;;;;;5051480;28;20715;-51
2020/12/23 11:10:56;;;;;;;3.07;2.87;;;15.00;99.90;;;;;;5052180;28;21251;-49
2020/12/23 11:13:24;;;;;;;4.30;3.93;;;15.00;99.90;;;;;;5052013;28;20760;-50
2020/12/23 11:15:51;;;;;;;6.13;4.20;;;15.00;99.90;;;;;;5052518;28;20622;-51
2020/12/23 11:18:18;;;;;;;4.60;3.27;;;15.00;99.90;;;;;;5033691;28;20657;-51
2020/12/23 11:20:44;;;;;;;3.23;3.00;;;15.00;99.90;;;;;;5072833;28;20658;-52
2020/12/23 11:23:11;;;;;;;4.90;4.13;;;15.00;99.90;;;;;;5052343;28;20711;-50
2020/12/23 11:25:38;;;;;;;3.60;3.30;;;14.90;99.90;;;;;;5071428;28;20660;-52
2020/12/23 11:28:04;;;;;;;5.20;3.40;;;15.00;99.90;;;;;;5071308;28;20738;-51
2020/12/23 11:30:32;;;;;;;4.37;3.60;;;15.00;99.90;;;;;;5068549;28;20971;-51
2020/12/23 11:32:59;;;;;;;4.60;4.13;;;15.00;99.90;;;;;;5051500;28;20653;-52
2020/12/23 11:35:25;;;;;;;5.00;3.83;;;14.90;99.90;;;;;;5050229;28;20653;-51
2020/12/23 11:37:52;;;;;;;3.70;3.00;;;15.00;99.90;;;;;;5056868;28;21081;-52
2020/12/23 11:40:19;;;;;;;5.70;4.17;;;14.90;99.90;;;;;;5068539;28;21026;-52
2020/12/23 11:42:46;;;;;;;4.10;3.43;;;14.90;99.90;;;;;;5069442;28;20993;-50
2020/12/23 11:45:12;;;;;;;5.93;3.23;;;14.90;99.90;;;;;;5068600;28;20657;-51
2020/12/23 11:47:40;;;;;;;4.33;4.03;;;14.90;99.90;;;;;;5068920;28;20708;-51
2020/12/23 11:50:07;;;;;;;5.93;3.60;;;15.00;99.90;;;;;;5079346;28;20674;-49
2020/12/23 11:52:33;;;;;;;3.37;3.13;;;14.90;99.90;;;;;;5071595;28;20757;-51
2020/12/23 11:55:00;;;;;;;3.97;3.67;;;15.00;99.90;;;;;;5070697;28;20700;-50
2020/12/23 11:57:27;;;;;;;4.07;3.67;;;14.90;99.90;;;;;;5051745;28;20630;-51
2020/12/23 11:59:54;;;;;;;4.23;3.37;;;14.90;99.90;;;;;;5050013;28;20665;-52
2020/12/23 12:02:20;;;;;;;5.33;4.30;;;15.00;99.90;;;;;;5067694;28;20733;-51
2020/12/23 12:04:48;;;;;;;3.27;2.90;;;15.00;99.90;;;;;;5071774;28;20613;-52
2020/12/23 12:07:15;;;;;;;3.60;3.03;;;15.00;99.90;;;;;;5070799;28;21091;-52
2020/12/23 12:09:41;;;;;;;2.90;2.70;;;15.00;99.90;;;;;;5071211;28;20718;-50
2020/12/23 12:12:08;;;;;;;3.90;3.47;;;15.00;99.90;;;;;;5054792;28;20649;-51
2020/12/23 12:14:35;;;;;;;3.00;2.50;;;15.00;99.90;;;;;;5050555;28;20755;-53
2020/12/23 12:17:01;;;;;;;3.83;3.53;;;15.00;99.90;;;;;;5050666;28;20687;-51
2020/12/23 12:19:28;;;;;;;3.53;3.23;;;15.00;99.90;;;;;;5059839;28;21072;-51
2020/12/23 12:21:56;;;;;;;3.97;3.53;;;15.00;99.90;;;;;;5063352;28;21029;-50
2020/12/23 12:24:23;;;;;;;3.67;3.40;;;15.00;99.90;;;;;;5060965;28;20664;-51
2020/12/23 12:26:49;;;;;;;4.03;3.73;;;14.90;99.90;;;;;;5057144;28;20664;-54
2020/12/23 12:29:16;;;;;;;3.30;3.00;;;15.00;99.90;;;;;;5050738;28;20705;-50
2020/12/23 12:31:43;;;;;;;4.27;3.70;;;15.00;99.90;;;;;;5063316;28;20661;-50
2020/12/23 12:34:10;;;;;;;5.10;3.43;;;15.00;99.90;;;;;;5070419;28;20633;-50
2020/12/23 12:36:36;;;;;;;4.63;3.30;;;15.00;99.90;;;;;;5070224;28;21038;-51
2020/12/23 12:39:04;;;;;;;3.33;3.07;;;15.00;99.90;;;;;;5052500;28;21109;-50
2020/12/23 12:41:31;;;;;;;3.47;3.17;;;15.00;99.90;;;;;;5061403;28;21030;-49
2020/12/23 12:43:58;;;;;;;4.27;3.17;;;15.00;99.90;;;;;;5070467;28;20653;-50
2020/12/23 12:46:24;;;;;;;4.20;3.13;;;15.00;99.90;;;;;;5070876;28;20621;-51
2020/12/23 12:48:51;;;;;;;3.13;2.83;;;15.00;99.90;;;;;;5070172;28;21082;-50